Time;durP1;ratioP1;P1;durP2;ratioP2;P2;SDS_P1;SDS_P2;PMS_P1;PMS_P2;Temp;Humidity;BMP_temperature;BMP_pressure;BME280_temperature;BME280_humidity;BME280_pressure;Samples;Min_cycle;Max_cycle;Signal;HPM_P1;HPM_P2
2021/04/30 00:01:35;;;;;;;8.43;5.32;;;16.10;88.00;;;;;;5103185;28;20551;-74
2021/04/30 00:04:00;;;;;;;6.43;5.82;;;16.10;87.70;;;;;;5082194;28;20640;-74
2021/04/30 00:06:26;;;;;;;9.15;5.72;;;16.10;87.50;;;;;;5096742;28;21800;-74
2021/04/30 00:08:52;;;;;;;5.85;5.18;;;16.10;88.30;;;;;;5102009;28;20206;-73
2021/04/30 00:11:18;;;;;;;7.55;5.28;;;16.20;88.00;;;;;;5098525;28;20205;-73
2021/04/30 00:13:43;;;;;;;6.07;5.53;;;16.10;88.00;;;;;;5101543;28;20665;-73
2021/04/30 00:16:09;;;;;;;6.93;5.43;;;16.10;87.60;;;;;;5103565;28;20200;-73
2021/04/30 00:18:35;;;;;;;6.55;5.95;;;16.20;87.40;;;;;;5099936;28;20178;-73
2021/04/30 00:21:02;;;;;;;6.28;5.68;;;16.10;87.60;;;;;;5099822;28;20245;-73
2021/04/30 00:23:31;;;;;;;8.65;5.72;;;16.10;87.30;;;;;;5097015;28;20187;-73
2021/04/30 00:25:58;;;;;;;8.05;6.20;;;16.10;87.50;;;;;;5100871;28;20221;-73
2021/04/30 00:28:24;;;;;;;8.63;5.75;;;16.00;87.90;;;;;;5101302;28;20181;-72
2021/04/30 00:30:52;;;;;;;6.80;6.13;;;16.00;87.80;;;;;;5098676;28;20216;-73
2021/04/30 00:33:18;;;;;;;7.95;6.18;;;16.00;87.90;;;;;;5103934;28;20205;-74
2021/04/30 00:35:44;;;;;;;8.63;5.95;;;15.90;88.30;;;;;;5099453;28;20297;-74
2021/04/30 00:38:11;;;;;;;8.55;6.07;;;15.90;88.20;;;;;;5100468;28;20216;-73
2021/04/30 00:40:38;;;;;;;9.57;5.82;;;15.90;88.40;;;;;;5101119;28;20205;-74
2021/04/30 00:43:04;;;;;;;7.20;5.78;;;15.90;88.20;;;;;;5099977;28;20213;-73
2021/04/30 00:45:30;;;;;;;8.70;6.30;;;15.80;88.30;;;;;;5099872;28;20690;-74
2021/04/30 00:47:56;;;;;;;10.02;6.00;;;15.80;88.20;;;;;;5104134;28;20184;-73
2021/04/30 00:50:24;;;;;;;9.30;5.03;;;15.80;88.30;;;;;;5104453;28;20265;-74
2021/04/30 00:52:50;;;;;;;4.97;4.68;;;15.80;88.40;;;;;;5102705;28;20719;-74
2021/04/30 00:55:18;;;;;;;5.15;4.85;;;15.80;88.70;;;;;;5102416;28;20182;-74
2021/04/30 00:58:05;;;;;;;5.93;5.07;;;15.80;88.50;;;;;;5097977;28;20205;-73
2021/04/30 01:00:34;;;;;;;4.93;4.47;;;15.80;88.30;;;;;;5098692;28;20189;-74
2021/04/30 01:03:00;;;;;;;6.30;5.80;;;15.90;88.50;;;;;;5100753;28;20192;-73
2021/04/30 01:05:26;;;;;;;5.32;4.82;;;15.90;88.40;;;;;;5099654;28;20209;-73
2021/04/30 01:07:52;;;;;;;5.00;4.70;;;15.90;88.30;;;;;;5101066;28;20197;-73
2021/04/30 01:10:20;;;;;;;6.10;5.05;;;15.90;88.50;;;;;;5101413;28;20181;-73
2021/04/30 01:12:47;;;;;;;5.53;5.13;;;15.90;88.40;;;;;;5100795;28;20239;-73
2021/04/30 01:15:14;;;;;;;6.38;5.60;;;16.00;88.40;;;;;;5097715;28;20192;-73
2021/04/30 01:17:40;;;;;;;5.75;4.85;;;15.90;88.40;;;;;;5100046;28;20174;-73
2021/04/30 01:20:08;;;;;;;6.68;4.80;;;15.90;88.90;;;;;;5101154;28;20202;-73
2021/04/30 01:22:34;;;;;;;5.40;4.40;;;15.90;88.70;;;;;;5103166;28;20182;-73
2021/04/30 01:25:00;;;;;;;6.75;4.50;;;15.90;88.40;;;;;;5101723;28;20276;-72
2021/04/30 01:27:26;;;;;;;6.68;4.45;;;15.90;88.50;;;;;;5098540;28;20187;-73
2021/04/30 01:29:51;;;;;;;5.53;4.95;;;15.80;88.50;;;;;;5103061;28;20194;-73
2021/04/30 01:32:17;;;;;;;5.95;4.80;;;15.80;88.60;;;;;;5098380;28;20177;-73
2021/04/30 01:34:43;;;;;;;7.15;4.72;;;15.80;88.90;;;;;;5095173;28;20186;-73
2021/04/30 01:37:08;;;;;;;5.40;4.88;;;15.80;88.80;;;;;;5093323;28;20663;-73
2021/04/30 01:39:34;;;;;;;4.68;4.00;;;15.80;88.80;;;;;;5101244;28;20294;-73
2021/04/30 01:42:03;;;;;;;5.20;4.55;;;15.80;88.60;;;;;;5099128;28;20178;-73
2021/04/30 01:44:28;;;;;;;5.50;5.00;;;15.80;88.80;;;;;;5101452;28;20248;-73
2021/04/30 01:46:54;;;;;;;5.07;4.05;;;15.80;88.80;;;;;;5099265;28;20181;-73
2021/04/30 01:49:38;;;;;;;4.93;4.63;;;15.70;88.70;;;;;;5098916;28;20186;-73
2021/04/30 01:52:04;;;;;;;5.80;4.60;;;15.70;89.20;;;;;;5103016;28;20182;-72
2021/04/30 01:54:30;;;;;;;4.18;3.97;;;15.70;89.50;;;;;;5096383;28;20189;-73
2021/04/30 01:56:56;;;;;;;4.88;4.47;;;15.70;89.00;;;;;;5092634;28;20216;-73
2021/04/30 01:59:22;;;;;;;4.75;4.32;;;15.60;89.00;;;;;;5102357;28;20178;-73
2021/04/30 02:01:47;;;;;;;4.03;3.83;;;15.60;89.00;;;;;;5102669;28;20193;-73
2021/04/30 02:04:13;;;;;;;4.72;4.32;;;15.60;88.90;;;;;;5098468;28;20259;-73
2021/04/30 02:06:41;;;;;;;6.65;4.28;;;15.50;88.70;;;;;;5094959;28;20202;-73
2021/04/30 02:09:08;;;;;;;5.43;4.68;;;15.50;88.90;;;;;;5095631;28;20177;-73
2021/04/30 02:11:35;;;;;;;4.68;4.35;;;15.50;89.00;;;;;;5097062;28;20614;-73
2021/04/30 02:14:02;;;;;;;4.43;4.15;;;15.40;89.20;;;;;;5095054;28;20197;-73
2021/04/30 02:16:27;;;;;;;5.75;4.28;;;15.40;89.30;;;;;;5098496;28;20673;-73
2021/04/30 02:18:53;;;;;;;5.50;4.60;;;15.40;89.30;;;;;;5098921;28;20178;-73
2021/04/30 02:21:19;;;;;;;5.40;4.93;;;15.30;89.80;;;;;;5103313;28;20264;-74
2021/04/30 02:23:45;;;;;;;5.90;5.18;;;15.30;90.00;;;;;;5099365;28;20331;-73
2021/04/30 02:26:11;;;;;;;9.40;5.20;;;15.30;90.40;;;;;;5096255;28;20304;-74
2021/04/30 02:28:36;;;;;;;9.02;5.30;;;15.30;90.50;;;;;;5097730;28;20185;-74
2021/04/30 02:31:02;;;;;;;5.47;4.97;;;15.20;90.80;;;;;;5101608;28;20580;-74
2021/04/30 02:33:28;;;;;;;4.93;4.55;;;15.20;91.00;;;;;;5098985;28;20178;-74
2021/04/30 02:35:54;;;;;;;5.82;5.22;;;15.20;91.00;;;;;;5099206;28;20220;-74
2021/04/30 02:38:20;;;;;;;6.57;5.38;;;15.10;90.70;;;;;;5095730;28;20257;-74
2021/04/30 02:40:48;;;;;;;6.30;5.38;;;15.10;91.00;;;;;;5097960;28;20184;-74
2021/04/30 02:43:19;;;;;;;6.47;5.55;;;15.10;90.80;;;;;;5100614;28;20182;-74
2021/04/30 02:45:50;;;;;;;5.55;5.15;;;15.00;90.50;;;;;;5097969;28;20186;-74
2021/04/30 02:48:24;;;;;;;6.57;6.00;;;15.00;91.00;;;;;;5096189;28;20182;-73
2021/04/30 02:50:50;;;;;;;6.70;5.93;;;14.90;92.10;;;;;;5095777;28;20280;-73
2021/04/30 02:53:16;;;;;;;7.30;6.63;;;14.90;91.80;;;;;;5080313;28;20196;-74
2021/04/30 02:55:42;;;;;;;6.30;5.72;;;14.90;92.00;;;;;;5097783;28;20207;-73
2021/04/30 02:58:09;;;;;;;7.80;5.85;;;14.80;92.00;;;;;;5080059;28;20188;-74
2021/04/30 03:00:35;;;;;;;11.32;6.32;;;14.70;92.20;;;;;;5100916;28;20678;-74
2021/04/30 03:03:02;;;;;;;7.80;5.70;;;14.70;92.70;;;;;;5098899;28;20188;-74
2021/04/30 03:05:28;;;;;;;8.63;6.53;;;14.70;92.50;;;;;;5101892;28;20238;-74
2021/04/30 03:07:53;;;;;;;6.95;6.25;;;14.60;92.40;;;;;;5099067;28;20193;-73
2021/04/30 03:10:19;;;;;;;7.30;6.00;;;14.50;92.40;;;;;;5097450;28;20187;-74
2021/04/30 03:12:46;;;;;;;9.82;6.30;;;14.50;92.40;;;;;;5098615;28;20195;-74
2021/04/30 03:15:14;;;;;;;7.45;6.05;;;14.40;92.60;;;;;;5102438;28;20239;-74
2021/04/30 03:17:41;;;;;;;7.75;6.10;;;14.40;92.90;;;;;;5098838;28;20209;-74
2021/04/30 03:20:09;;;;;;;5.78;5.28;;;14.40;93.00;;;;;;5098894;28;20645;-73
2021/04/30 03:22:35;;;;;;;6.65;5.88;;;14.40;92.70;;;;;;5095522;28;20190;-74
2021/04/30 03:25:02;;;;;;;6.82;6.20;;;14.30;92.80;;;;;;5106707;28;20702;-73
2021/04/30 03:27:27;;;;;;;9.40;6.70;;;14.30;93.10;;;;;;5104528;28;20260;-74
2021/04/30 03:29:56;;;;;;;6.18;5.68;;;14.30;93.20;;;;;;5102297;28;20303;-73
2021/04/30 03:32:23;;;;;;;6.68;6.07;;;14.20;93.20;;;;;;5099649;28;20193;-73
2021/04/30 03:34:49;;;;;;;7.20;6.55;;;14.20;93.30;;;;;;5102719;28;20615;-73
2021/04/30 03:37:14;;;;;;;6.30;5.75;;;14.10;93.50;;;;;;5100401;28;20266;-73
2021/04/30 03:39:40;;;;;;;6.93;6.22;;;14.10;94.00;;;;;;5096771;28;20901;-73
2021/04/30 03:42:06;;;;;;;9.13;6.63;;;14.00;94.40;;;;;;5102849;28;20260;-73
2021/04/30 03:44:31;;;;;;;13.57;6.50;;;14.00;94.10;;;;;;5101723;28;20182;-74
2021/04/30 03:46:57;;;;;;;7.53;6.10;;;14.00;94.50;;;;;;5105824;28;20599;-73
2021/04/30 03:49:23;;;;;;;11.45;6.30;;;14.00;94.80;;;;;;5102961;28;20260;-73
2021/04/30 03:51:50;;;;;;;8.55;6.20;;;13.90;95.50;;;;;;5081815;28;20269;-73
2021/04/30 03:54:15;;;;;;;9.00;6.43;;;13.80;96.00;;;;;;5098804;28;20182;-73
2021/04/30 03:56:41;;;;;;;7.82;6.10;;;13.90;95.90;;;;;;5101968;28;20587;-74
2021/04/30 03:59:07;;;;;;;6.95;6.05;;;13.80;95.60;;;;;;5100785;28;20186;-73
2021/04/30 04:01:32;;;;;;;5.93;5.50;;;13.90;95.20;;;;;;5096556;28;20230;-73
2021/04/30 04:03:58;;;;;;;11.65;6.22;;;13.90;95.00;;;;;;5102651;28;20185;-73
2021/04/30 04:06:24;;;;;;;7.88;6.38;;;13.90;95.00;;;;;;5102750;28;20221;-74
2021/04/30 04:08:49;;;;;;;7.05;6.40;;;13.90;95.00;;;;;;5103271;28;20731;-74
2021/04/30 04:11:15;;;;;;;9.07;6.03;;;13.90;94.80;;;;;;5096704;28;21077;-73
2021/04/30 04:13:41;;;;;;;7.95;5.85;;;14.00;94.60;;;;;;5104114;28;20292;-74
2021/04/30 04:16:06;;;;;;;6.35;5.47;;;14.00;94.80;;;;;;5104518;28;20719;-73
2021/04/30 04:18:32;;;;;;;6.18;5.60;;;14.10;94.60;;;;;;5101855;28;20731;-73
2021/04/30 04:20:58;;;;;;;4.88;4.47;;;14.10;94.60;;;;;;5101110;28;20186;-74
2021/04/30 04:23:24;;;;;;;6.13;5.53;;;14.20;94.50;;;;;;5101122;28;20187;-73
2021/04/30 04:25:50;;;;;;;7.78;5.28;;;14.30;94.40;;;;;;5101680;28;20186;-73
2021/04/30 04:28:15;;;;;;;5.63;5.13;;;14.30;94.40;;;;;;5100527;28;20636;-74
2021/04/30 04:30:41;;;;;;;5.65;5.15;;;14.40;94.30;;;;;;5103927;28;20181;-74
2021/04/30 04:33:07;;;;;;;7.35;5.95;;;14.50;94.40;;;;;;5102503;28;20314;-74
2021/04/30 04:35:33;;;;;;;8.77;5.55;;;14.50;94.20;;;;;;5099664;28;20270;-74
2021/04/30 04:37:58;;;;;;;6.53;5.95;;;14.60;93.90;;;;;;5098192;28;20372;-74
2021/04/30 04:40:25;;;;;;;8.98;6.28;;;14.70;94.10;;;;;;5102759;28;20174;-73
2021/04/30 04:42:52;;;;;;;9.57;6.43;;;14.70;93.80;;;;;;5102470;28;20862;-74
2021/04/30 04:45:18;;;;;;;19.50;6.35;;;14.80;93.30;;;;;;5099031;28;20659;-74
2021/04/30 04:47:44;;;;;;;6.38;5.82;;;14.90;93.10;;;;;;5099559;28;20612;-74
2021/04/30 04:50:12;;;;;;;7.60;6.45;;;15.00;92.90;;;;;;5098647;28;20181;-74
2021/04/30 04:52:38;;;;;;;7.82;7.07;;;15.00;93.00;;;;;;5097825;28;20182;-74
2021/04/30 04:55:06;;;;;;;7.32;6.00;;;15.00;93.80;;;;;;5101479;28;20273;-74
2021/04/30 04:57:32;;;;;;;7.05;6.22;;;14.90;92.90;;;;;;5100583;28;20213;-75
2021/04/30 04:59:57;;;;;;;6.75;6.15;;;15.00;93.40;;;;;;5100208;28;20594;-74
2021/04/30 05:02:23;;;;;;;8.07;6.30;;;15.00;92.80;;;;;;5100871;28;20216;-74
2021/04/30 05:04:49;;;;;;;5.47;5.18;;;15.00;92.90;;;;;;5103325;28;20724;-76
2021/04/30 05:07:15;;;;;;;6.30;5.68;;;15.00;92.80;;;;;;5103269;28;20739;-74
2021/04/30 05:09:40;;;;;;;8.57;6.90;;;15.00;92.70;;;;;;5102248;28;20274;-73
2021/04/30 05:12:07;;;;;;;9.70;6.40;;;15.10;93.10;;;;;;5099669;28;20268;-73
2021/04/30 05:14:33;;;;;;;10.07;6.15;;;15.10;93.00;;;;;;5103476;28;20255;-74
2021/04/30 05:16:59;;;;;;;6.35;5.85;;;15.20;92.60;;;;;;5101984;28;20779;-75
2021/04/30 05:19:25;;;;;;;7.35;5.47;;;15.30;92.60;;;;;;5103434;28;20186;-74
2021/04/30 05:21:51;;;;;;;8.05;5.93;;;15.30;92.30;;;;;;5100863;28;20669;-75
2021/04/30 05:24:16;;;;;;;6.13;5.68;;;15.40;92.50;;;;;;5099030;28;20193;-74
2021/04/30 05:26:42;;;;;;;6.55;5.95;;;15.50;92.20;;;;;;5098940;28;20542;-74
2021/04/30 05:29:11;;;;;;;12.73;7.40;;;15.50;92.10;;;;;;5101620;28;20418;-75
2021/04/30 05:31:37;;;;;;;8.10;6.72;;;15.60;92.00;;;;;;5102583;28;20582;-74
2021/04/30 05:34:03;;;;;;;10.05;7.20;;;15.70;91.80;;;;;;5102699;28;20196;-74
2021/04/30 05:36:30;;;;;;;9.35;6.20;;;15.70;91.40;;;;;;5094598;28;20800;-75
2021/04/30 05:38:56;;;;;;;8.45;6.22;;;15.80;91.40;;;;;;5099350;28;20182;-74
2021/04/30 05:41:22;;;;;;;8.13;6.13;;;15.90;91.30;;;;;;5100268;28;20666;-72
2021/04/30 05:43:48;;;;;;;7.32;6.57;;;15.90;91.40;;;;;;5100956;28;20429;-73
2021/04/30 05:46:14;;;;;;;10.98;7.05;;;16.00;91.30;;;;;;5092665;28;20189;-74
2021/04/30 05:48:40;;;;;;;6.32;5.72;;;16.00;91.00;;;;;;5095499;28;20197;-74
2021/04/30 05:51:05;;;;;;;7.85;5.95;;;16.10;90.90;;;;;;5100559;28;20651;-74
2021/04/30 05:53:31;;;;;;;9.60;7.18;;;16.20;90.70;;;;;;5075583;28;20213;-74
2021/04/30 05:55:57;;;;;;;6.50;5.82;;;16.20;90.60;;;;;;5096069;28;20209;-74
2021/04/30 05:58:22;;;;;;;10.93;6.43;;;16.30;90.50;;;;;;5095958;28;20690;-74
2021/04/30 06:00:48;;;;;;;5.72;5.32;;;16.40;90.50;;;;;;5096546;28;20225;-74
2021/04/30 06:03:14;;;;;;;9.43;6.53;;;16.50;90.10;;;;;;5092330;28;21568;-74
2021/04/30 06:05:40;;;;;;;11.82;6.32;;;16.60;89.40;;;;;;5091718;28;20181;-74
2021/04/30 06:08:06;;;;;;;7.63;6.55;;;16.70;89.50;;;;;;5094137;28;20574;-74
2021/04/30 06:10:32;;;;;;;6.10;5.45;;;16.80;89.40;;;;;;5093079;28;20264;-75
2021/04/30 06:13:07;;;;;;;10.52;5.85;;;16.90;89.20;;;;;;5099274;28;20193;-74
2021/04/30 06:15:33;;;;;;;12.27;6.00;;;17.00;88.10;;;;;;5099796;28;20200;-74
2021/04/30 06:18:00;;;;;;;8.65;5.60;;;17.10;88.50;;;;;;5094399;28;20181;-73
2021/04/30 06:20:26;;;;;;;6.72;5.72;;;17.20;88.40;;;;;;5091448;28;20208;-73
2021/04/30 06:22:52;;;;;;;8.63;6.43;;;17.20;88.20;;;;;;5091131;28;20659;-73
2021/04/30 06:25:18;;;;;;;8.50;5.95;;;17.30;88.10;;;;;;5096475;28;20208;-73
2021/04/30 06:27:44;;;;;;;7.95;5.60;;;17.40;87.60;;;;;;5095911;28;20181;-73
2021/04/30 06:30:10;;;;;;;6.47;5.50;;;17.50;87.20;;;;;;5071913;28;20182;-73
2021/04/30 06:32:38;;;;;;;8.02;5.18;;;17.50;87.00;;;;;;5097946;28;20264;-73
2021/04/30 06:35:06;;;;;;;8.65;4.93;;;17.60;86.20;;;;;;5095652;28;20191;-73
2021/04/30 06:37:32;;;;;;;9.15;4.22;;;17.70;86.10;;;;;;5091028;28;20202;-74
2021/04/30 06:39:58;;;;;;;8.95;5.00;;;17.70;85.60;;;;;;5098145;28;20193;-74
2021/04/30 06:42:24;;;;;;;7.60;4.47;;;17.80;85.40;;;;;;5095082;28;20580;-74
2021/04/30 06:44:51;;;;;;;6.13;4.40;;;17.90;85.10;;;;;;5095685;28;20696;-73
2021/04/30 06:47:16;;;;;;;4.22;3.85;;;18.00;84.80;;;;;;5099706;28;20185;-73
2021/04/30 06:49:42;;;;;;;4.72;3.90;;;18.10;84.60;;;;;;5098116;28;20247;-73
2021/04/30 06:52:08;;;;;;;4.47;4.13;;;18.10;84.20;;;;;;5081974;28;20185;-74
2021/04/30 06:54:33;;;;;;;9.27;3.40;;;18.20;84.20;;;;;;5093981;28;20191;-73
2021/04/30 06:56:59;;;;;;;4.20;3.90;;;18.30;83.90;;;;;;5096489;28;20210;-74
2021/04/30 06:59:25;;;;;;;4.78;3.85;;;18.40;83.80;;;;;;5101791;28;20229;-73
2021/04/30 07:01:50;;;;;;;3.83;3.53;;;18.40;83.20;;;;;;5100946;28;20286;-74
2021/04/30 07:04:19;;;;;;;3.65;3.40;;;18.50;83.00;;;;;;5096581;28;20826;-74
2021/04/30 07:06:45;;;;;;;6.28;4.00;;;18.60;82.80;;;;;;5096244;28;20181;-75
2021/04/30 07:09:11;;;;;;;6.85;3.75;;;18.70;82.60;;;;;;5099276;28;20639;-75
2021/04/30 07:11:36;;;;;;;5.70;3.50;;;18.80;82.30;;;;;;5098804;28;20182;-75
2021/04/30 07:14:04;;;;;;;4.53;4.15;;;18.90;81.90;;;;;;5103509;28;20216;-75
2021/04/30 07:16:29;;;;;;;4.25;3.45;;;19.00;81.60;;;;;;5106052;28;20265;-74
2021/04/30 07:18:55;;;;;;;5.57;3.92;;;19.00;81.40;;;;;;5102832;28;20723;-74
2021/04/30 07:21:21;;;;;;;10.57;3.75;;;19.10;81.30;;;;;;5104558;28;20230;-74
2021/04/30 07:23:47;;;;;;;3.88;3.17;;;19.20;81.10;;;;;;5103752;28;20587;-73
2021/04/30 07:26:12;;;;;;;4.13;3.28;;;19.30;80.70;;;;;;5104016;28;20178;-73
2021/04/30 07:28:38;;;;;;;7.85;3.40;;;19.40;80.40;;;;;;5102145;28;20623;-75
2021/04/30 07:31:04;;;;;;;4.30;2.85;;;19.40;80.20;;;;;;5104785;28;20173;-72
2021/04/30 07:33:30;;;;;;;4.05;2.83;;;19.50;80.00;;;;;;5099714;28;20229;-74
2021/04/30 07:35:55;;;;;;;4.15;3.42;;;19.60;79.80;;;;;;5101456;28;20270;-73
2021/04/30 07:38:21;;;;;;;8.50;3.58;;;19.70;79.80;;;;;;5098449;28;20193;-76
2021/04/30 07:40:48;;;;;;;5.57;3.25;;;19.80;79.40;;;;;;5101585;28;20178;-75
2021/04/30 07:43:16;;;;;;;9.18;3.05;;;19.90;79.00;;;;;;5104795;28;20234;-74
2021/04/30 07:45:43;;;;;;;5.80;3.33;;;20.00;79.10;;;;;;5101578;28;20185;-74
2021/04/30 07:48:10;;;;;;;3.42;2.75;;;20.10;78.70;;;;;;5104594;28;20185;-75
2021/04/30 07:50:37;;;;;;;3.45;2.72;;;20.20;77.70;;;;;;5100752;28;20178;-75
2021/04/30 07:53:03;;;;;;;4.75;2.97;;;20.30;77.10;;;;;;5102048;28;21859;-75
2021/04/30 07:55:30;;;;;;;5.45;2.80;;;20.40;77.20;;;;;;5102818;28;20178;-73
2021/04/30 07:57:55;;;;;;;7.78;2.90;;;20.50;77.10;;;;;;5104493;28;20231;-74
2021/04/30 08:00:21;;;;;;;5.78;2.67;;;20.60;77.40;;;;;;5103117;28;20228;-74
2021/04/30 08:02:50;;;;;;;4.85;2.90;;;20.60;76.20;;;;;;5101835;28;20182;-74
2021/04/30 08:05:16;;;;;;;7.75;2.63;;;20.70;75.60;;;;;;5102800;28;20183;-74
2021/04/30 08:07:45;;;;;;;5.25;2.80;;;20.80;76.20;;;;;;5098562;28;20573;-74
2021/04/30 08:10:12;;;;;;;2.85;2.65;;;21.00;76.10;;;;;;5103158;28;20683;-74
2021/04/30 08:12:41;;;;;;;6.60;2.53;;;21.10;75.40;;;;;;5101831;28;20228;-74
2021/04/30 08:15:09;;;;;;;5.32;2.65;;;21.20;74.90;;;;;;5101068;28;20199;-74
2021/04/30 08:17:34;;;;;;;2.25;2.03;;;21.30;74.90;;;;;;5102377;28;20214;-74
2021/04/30 08:20:03;;;;;;;2.45;2.10;;;21.40;74.80;;;;;;5101250;28;20260;-73
2021/04/30 08:22:29;;;;;;;3.92;2.25;;;21.50;74.20;;;;;;5103334;28;20217;-74
2021/04/30 08:24:55;;;;;;;3.40;2.03;;;21.70;74.00;;;;;;5102555;28;20174;-74
2021/04/30 08:27:22;;;;;;;3.65;2.20;;;21.90;74.10;;;;;;5101952;28;20190;-74
2021/04/30 08:29:48;;;;;;;2.10;2.00;;;22.10;73.70;;;;;;5100380;28;20174;-74
2021/04/30 08:32:14;;;;;;;3.53;1.83;;;22.30;73.10;;;;;;5095691;28;20260;-75
2021/04/30 08:37:25;;;;;;;6.82;2.35;;;22.80;72.50;;;;;;5092251;28;20772;-74
2021/04/30 08:39:50;;;;;;;4.63;2.20;;;23.00;72.20;;;;;;5087856;28;20266;-75
2021/04/30 08:42:17;;;;;;;4.95;1.80;;;23.10;69.90;;;;;;5094433;28;20182;-75
2021/04/30 08:44:43;;;;;;;2.75;1.75;;;23.20;71.20;;;;;;5090653;28;20185;-75
2021/04/30 08:47:18;;;;;;;5.45;1.77;;;23.20;70.70;;;;;;5091603;28;20185;-75
2021/04/30 08:49:45;;;;;;;4.03;1.60;;;23.40;69.40;;;;;;5092080;28;20205;-74
2021/04/30 08:52:12;;;;;;;2.72;1.95;;;23.40;69.60;;;;;;5092618;28;20725;-74
2021/04/30 08:54:38;;;;;;;2.60;1.80;;;23.50;68.80;;;;;;5091484;28;20174;-75
2021/04/30 08:57:08;;;;;;;6.07;1.52;;;23.60;68.80;;;;;;5099045;28;20209;-75
2021/04/30 08:59:35;;;;;;;4.38;1.90;;;23.70;68.70;;;;;;5101030;28;20178;-75
2021/04/30 09:02:01;;;;;;;4.63;2.10;;;23.80;68.00;;;;;;5097075;28;20714;-74
2021/04/30 09:04:46;;;;;;;3.10;1.90;;;23.90;68.70;;;;;;5096861;28;20190;-74
2021/04/30 09:07:13;;;;;;;7.88;2.05;;;24.10;67.70;;;;;;5089584;28;20193;-73
2021/04/30 09:10:05;;;;;;;5.35;1.92;;;24.20;66.60;;;;;;5100698;28;20204;-74
2021/04/30 09:12:32;;;;;;;2.33;1.67;;;24.40;65.70;;;;;;5100861;28;20217;-74
2021/04/30 09:14:59;;;;;;;3.40;1.30;;;24.60;65.60;;;;;;5102504;28;20182;-74
2021/04/30 09:17:27;;;;;;;3.97;2.20;;;24.80;64.30;;;;;;5101582;28;20221;-74
2021/04/30 09:20:00;;;;;;;4.25;1.42;;;25.10;65.00;;;;;;5098179;28;20174;-74
2021/04/30 09:22:38;;;;;;;2.90;1.67;;;25.40;64.30;;;;;;5094522;28;20650;-74
2021/04/30 09:25:12;;;;;;;2.08;1.92;;;25.70;62.50;;;;;;5095154;28;20184;-74
2021/04/30 09:27:40;;;;;;;3.03;1.55;;;25.80;61.60;;;;;;5099319;28;20272;-74
2021/04/30 09:30:29;;;;;;;1.85;1.75;;;26.00;61.50;;;;;;5099716;28;20272;-73
2021/04/30 09:33:14;;;;;;;1.75;1.60;;;26.30;61.30;;;;;;5098200;28;20740;-74
2021/04/30 09:35:40;;;;;;;5.28;1.35;;;26.70;60.20;;;;;;5098803;28;20559;-74
2021/04/30 09:38:27;;;;;;;3.35;1.60;;;27.00;60.10;;;;;;5095593;28;20178;-74
2021/04/30 09:41:02;;;;;;;3.63;1.30;;;27.20;58.40;;;;;;5097796;28;20268;-73
2021/04/30 09:43:46;;;;;;;5.18;1.20;;;27.50;58.60;;;;;;5097620;28;20517;-74
2021/04/30 09:46:24;;;;;;;2.03;1.30;;;27.90;57.50;;;;;;5096453;28;20195;-74
2021/04/30 09:48:59;;;;;;;3.92;1.42;;;28.30;58.80;;;;;;5097933;28;20593;-74
2021/04/30 09:52:00;;;;;;;1.63;1.15;;;28.90;57.10;;;;;;5098019;28;20280;-74
2021/04/30 09:54:30;;;;;;;5.57;1.83;;;29.80;55.40;;;;;;4975670;28;21256;-73
2021/04/30 09:57:17;;;;;;;4.32;1.65;;;30.40;54.00;;;;;;4977635;28;20229;-73
2021/04/30 09:59:59;;;;;;;5.15;1.50;;;31.20;53.50;;;;;;4978360;28;20746;-74
2021/04/30 10:02:31;;;;;;;1.63;1.27;;;32.10;51.70;;;;;;4978721;28;20202;-73
2021/04/30 10:05:06;;;;;;;3.83;1.10;;;32.70;52.50;;;;;;4978568;28;20193;-74
2021/04/30 10:07:34;;;;;;;2.28;1.23;;;33.40;51.20;;;;;;4976441;28;20201;-73
2021/04/30 10:10:04;;;;;;;5.63;1.10;;;34.00;48.70;;;;;;4978876;28;20887;-74
2021/04/30 10:12:32;;;;;;;2.90;1.25;;;34.70;49.20;;;;;;4977091;28;20201;-74
2021/04/30 10:17:42;;;;;;;2.10;1.25;;;36.10;48.40;;;;;;4978728;28;20375;-74
2021/04/30 10:20:12;;;;;;;4.60;1.15;;;36.40;48.70;;;;;;4978415;28;20654;-74
2021/04/30 10:22:41;;;;;;;4.15;1.60;;;36.40;49.30;;;;;;4960805;28;20192;-74
2021/04/30 10:25:10;;;;;;;3.20;0.95;;;36.60;47.80;;;;;;4979683;28;20721;-74
2021/04/30 10:27:39;;;;;;;4.82;1.30;;;36.90;46.80;;;;;;4996822;28;20690;-74
2021/04/30 10:30:44;;;;;;;4.60;1.25;;;37.10;47.80;;;;;;5097048;28;20181;-74
2021/04/30 10:33:28;;;;;;;4.00;1.55;;;37.40;44.50;;;;;;5078077;28;20190;-74
2021/04/30 10:36:31;;;;;;;5.63;1.40;;;37.70;44.50;;;;;;5090366;28;20311;-74
2021/04/30 10:39:01;;;;;;;1.75;1.42;;;38.10;43.90;;;;;;5092846;28;20195;-74
2021/04/30 10:41:29;;;;;;;7.07;1.60;;;38.40;46.70;;;;;;5096031;28;20173;-75
2021/04/30 10:44:15;;;;;;;4.10;1.60;;;38.70;46.40;;;;;;5096228;28;20180;-74
2021/04/30 10:46:43;;;;;;;6.43;1.52;;;38.70;42.80;;;;;;5093469;28;20679;-74
2021/04/30 10:49:09;;;;;;;3.80;1.10;;;38.80;45.30;;;;;;5096788;28;20185;-74
2021/04/30 10:51:37;;;;;;;2.88;1.33;;;39.00;43.10;;;;;;5097578;28;20181;-74
2021/04/30 10:54:26;;;;;;;2.50;1.40;;;39.10;43.50;;;;;;5095656;28;20189;-74
2021/04/30 10:57:05;;;;;;;3.30;1.38;;;39.40;42.50;;;;;;5097832;28;20181;-74
2021/04/30 10:59:36;;;;;;;5.32;1.20;;;39.70;43.00;;;;;;5094879;28;20718;-74
2021/04/30 11:02:26;;;;;;;4.55;1.23;;;39.80;42.30;;;;;;5094180;28;20211;-75
2021/04/30 11:05:10;;;;;;;1.48;1.30;;;39.90;43.50;;;;;;5096954;28;20723;-74
2021/04/30 11:07:50;;;;;;;15.80;1.80;;;40.10;42.20;;;;;;5094135;28;20213;-74
2021/04/30 11:10:30;;;;;;;6.05;1.25;;;40.30;42.00;;;;;;5093399;28;20181;-74
2021/04/30 11:13:00;;;;;;;4.68;1.10;;;40.30;42.30;;;;;;5098337;28;20189;-73
2021/04/30 11:15:51;;;;;;;1.42;1.20;;;40.50;42.50;;;;;;5096726;28;20659;-74
2021/04/30 11:18:22;;;;;;;1.63;1.08;;;41.00;41.60;;;;;;5101817;28;20229;-74
2021/04/30 11:21:10;;;;;;;8.02;1.40;;;41.60;40.80;;;;;;5099338;28;20195;-74
2021/04/30 11:23:36;;;;;;;4.05;1.00;;;42.20;39.70;;;;;;5098191;28;20181;-74
2021/04/30 11:26:07;;;;;;;10.70;1.60;;;42.60;41.30;;;;;;5097654;28;20234;-74
2021/04/30 11:28:33;;;;;;;3.13;1.13;;;42.80;40.50;;;;;;5099138;28;20173;-74
2021/04/30 11:31:16;;;;;;;7.72;1.23;;;42.50;39.60;;;;;;5101160;28;20688;-74
2021/04/30 11:34:05;;;;;;;1.52;0.93;;;42.10;41.90;;;;;;5079982;28;20619;-74
2021/04/30 11:36:31;;;;;;;2.10;0.88;;;41.40;41.20;;;;;;5097327;28;20200;-74
2021/04/30 11:39:16;;;;;;;3.50;0.95;;;41.00;41.20;;;;;;5093003;28;20185;-74
2021/04/30 11:41:43;;;;;;;1.33;0.93;;;40.60;38.00;;;;;;5095354;28;20575;-74
2021/04/30 11:44:09;;;;;;;1.27;0.90;;;39.90;42.30;;;;;;5101587;28;20220;-74
2021/04/30 11:46:38;;;;;;;4.28;1.00;;;39.60;41.60;;;;;;5097729;28;20723;-74
2021/04/30 11:49:03;;;;;;;2.38;1.42;;;39.50;40.90;;;;;;5101686;28;20181;-74
2021/04/30 11:51:29;;;;;;;3.40;1.40;;;39.60;41.90;;;;;;5099720;28;20677;-74
2021/04/30 11:53:57;;;;;;;2.35;1.33;;;40.00;41.00;;;;;;5101784;28;20178;-74
2021/04/30 11:56:30;;;;;;;1.17;1.08;;;40.80;40.30;;;;;;5096193;28;20173;-74
2021/04/30 11:58:57;;;;;;;2.00;1.00;;;41.60;39.80;;;;;;5098412;28;20273;-74
2021/04/30 12:01:25;;;;;;;4.45;1.30;;;42.30;39.90;;;;;;5101024;28;20181;-74
2021/04/30 12:03:54;;;;;;;10.07;1.73;;;43.00;39.10;;;;;;5100487;28;20183;-74
2021/04/30 12:06:30;;;;;;;12.63;1.95;;;43.70;38.60;;;;;;5094261;28;20210;-75
2021/04/30 12:08:56;;;;;;;7.05;1.55;;;44.30;38.20;;;;;;5100360;28;20198;-74
2021/04/30 12:11:23;;;;;;;5.07;1.33;;;44.90;37.40;;;;;;5096981;28;20994;-74
2021/04/30 12:13:50;;;;;;;2.92;0.98;;;45.20;39.80;;;;;;5101660;28;20217;-74
2021/04/30 12:16:17;;;;;;;3.25;1.13;;;45.30;38.30;;;;;;5101385;28;20692;-74
2021/04/30 12:18:43;;;;;;;4.45;0.90;;;45.20;38.90;;;;;;5099946;28;20231;-74
2021/04/30 12:21:09;;;;;;;3.15;1.02;;;45.20;38.90;;;;;;5101143;28;20181;-74
2021/04/30 12:23:36;;;;;;;2.88;0.95;;;45.20;38.10;;;;;;5095154;28;20269;-73
2021/04/30 12:26:02;;;;;;;10.23;1.50;;;44.80;40.00;;;;;;5099723;28;20604;-73
2021/04/30 12:28:30;;;;;;;9.20;0.93;;;44.50;37.40;;;;;;5096816;28;20246;-74
2021/04/30 12:31:03;;;;;;;5.18;1.00;;;44.70;38.90;;;;;;5097072;28;20647;-74
2021/04/30 12:33:45;;;;;;;2.53;0.68;;;44.30;36.30;;;;;;5093599;28;20211;-75
2021/04/30 12:36:16;;;;;;;2.38;0.68;;;44.30;35.50;;;;;;5099608;28;20184;-74
2021/04/30 12:38:45;;;;;;;0.82;0.50;;;44.60;36.90;;;;;;5095071;28;20255;-74
2021/04/30 12:41:23;;;;;;;1.27;0.63;;;44.50;37.70;;;;;;5092279;28;20261;-75
2021/04/30 12:43:50;;;;;;;2.38;0.50;;;44.20;35.40;;;;;;5095286;28;20203;-75
2021/04/30 12:46:22;;;;;;;1.35;0.60;;;43.30;35.10;;;;;;5090741;28;20706;-72
2021/04/30 12:48:53;;;;;;;2.42;0.60;;;41.90;38.40;;;;;;5093530;28;20262;-74
2021/04/30 12:54:11;;;;;;;0.93;0.60;;;39.60;39.30;;;;;;5096126;28;20195;-73
2021/04/30 12:56:41;;;;;;;2.70;0.50;;;38.70;38.30;;;;;;5096906;28;20180;-73
2021/04/30 12:59:11;;;;;;;0.95;0.80;;;38.10;40.30;;;;;;5093018;28;20205;-73
2021/04/30 13:01:39;;;;;;;2.05;0.60;;;38.10;39.30;;;;;;5093442;28;20171;-73